Sveva — IBEU — position and weather

sailwx.info

Track history (hours):
 
Tides and Currents Weather Stations Pressure Air Temp Water Temp Dewpoint Dewpoint Depression Visibility Wind Speed Wind Dir Waves Ship Positions

Sveva

Last reported at 2015-Sep-03 05:25 UTC. Time now 2015-Sep-05 05:46 UTC.
Position N 38°26' E 024°57'.

Length 136 m; draft 7.5 m.

Type: Tanker. MMSI: 247359000.

Date/timePositionNaut miles runAvg speedWind from/ knotsBaromVisibWave heightAir tempDewpointWater temp
2015-Sep-03 05:25N 38°26' E 024°57'3713.0
2015-Sep-03 02:33N 37°54' E 024°35'1612.8
2015-Sep-03 01:19N 37°44' E 024°19'1012.9
2015-Sep-03 00:31N 37°36' E 024°11'1313.4
2015-Sep-02 23:33N 37°25' E 024°02'1313.0
2015-Sep-02 22:33N 37°14' E 023°53'1312.7
2015-Sep-02 21:33N 37°04' E 023°44'1312.5
2015-Sep-02 20:34N 36°53' E 023°37'1312.5
2015-Sep-02 19:33N 36°41' E 023°30'35511.8
2015-Sep-01 13:28N 36°31' E 016°07'1212.7
2015-Sep-01 12:33N 36°31' E 015°52'1312.8
2015-Sep-01 11:33N 36°32' E 015°37'1312.7
2015-Sep-01 10:33N 36°33' E 015°21'1312.7
2015-Sep-01 09:33N 36°34' E 015°05'1412.9
2015-Sep-01 08:26N 36°37' E 014°48'5012.8
2015-Sep-01 04:33N 36°57' E 013°51'1512.6
2015-Sep-01 03:21N 37°03' E 013°34'3612.6
2015-Sep-01 00:31N 37°20' E 012°54'1912.7
2015-Aug-31 23:04N 37°27' E 012°33'812.9
2015-Aug-31 22:27N 37°31' E 012°24'1212.6
2015-Aug-31 21:32N 37°36' E 012°11'8 8.1
2015-Aug-31 20:33N 37°39' E 012°01'1111.3
2015-Aug-31 19:33N 37°44' E 011°48'1413.2
2015-Aug-31 18:31N 37°49' E 011°33'1313.3
2015-Aug-31 17:33N 37°54' E 011°18'1313.3
2015-Aug-31 16:33N 37°59' E 011°02'1413.6
2015-Aug-31 15:33N 37°59' E 010°45'1413.5
2015-Aug-31 14:32N 37°58' E 010°27'1312.9
2015-Aug-31 13:33N 37°57' E 010°11'1312.9
2015-Aug-31 12:33N 37°55' E 009°55'1313.0
2015-Aug-31 11:33N 37°55' E 009°38'15112.5
2015-Aug-30 23:31N 37°38' E 006°29'6712.7
2015-Aug-30 18:16N 37°31' E 005°05'2313.5
2015-Aug-30 16:33N 37°29' E 004°37'1513.4
2015-Aug-30 15:28N 37°27' E 004°18'19412.9
2015-Aug-30 00:30N 36°39' E 000°23'  
Track history (hours):
 
Tides and Currents Weather Stations Pressure Air Temp Water Temp Dewpoint Dewpoint Depression Visibility Wind Speed Wind Dir Waves Ship Positions

Sveva

Last reported at 2015-Sep-03 05:25 UTC. Time now 2015-Sep-05 05:46 UTC.
Position N 38°26' E 024°57'.

Length 136 m; draft 7.5 m.

Type: Tanker. MMSI: 247359000.

Date/timePositionNaut miles runAvg speedWind from/ knotsBaromVisibWave heightAir tempDewpointWater temp
2015-Sep-03 05:25N 38°26' E 024°57'3713.0
2015-Sep-03 02:33N 37°54' E 024°35'1612.8
2015-Sep-03 01:19N 37°44' E 024°19'1012.9
2015-Sep-03 00:31N 37°36' E 024°11'1313.4
2015-Sep-02 23:33N 37°25' E 024°02'1313.0
2015-Sep-02 22:33N 37°14' E 023°53'1312.7
2015-Sep-02 21:33N 37°04' E 023°44'1312.5
2015-Sep-02 20:34N 36°53' E 023°37'1312.5
2015-Sep-02 19:33N 36°41' E 023°30'35511.8
2015-Sep-01 13:28N 36°31' E 016°07'1212.7
2015-Sep-01 12:33N 36°31' E 015°52'1312.8
2015-Sep-01 11:33N 36°32' E 015°37'1312.7
2015-Sep-01 10:33N 36°33' E 015°21'1312.7
2015-Sep-01 09:33N 36°34' E 015°05'1412.9
2015-Sep-01 08:26N 36°37' E 014°48'5012.8
2015-Sep-01 04:33N 36°57' E 013°51'1512.6
2015-Sep-01 03:21N 37°03' E 013°34'3612.6
2015-Sep-01 00:31N 37°20' E 012°54'1912.7
2015-Aug-31 23:04N 37°27' E 012°33'812.9
2015-Aug-31 22:27N 37°31' E 012°24'1212.6
2015-Aug-31 21:32N 37°36' E 012°11'8 8.1
2015-Aug-31 20:33N 37°39' E 012°01'1111.3
2015-Aug-31 19:33N 37°44' E 011°48'1413.2
2015-Aug-31 18:31N 37°49' E 011°33'1313.3
2015-Aug-31 17:33N 37°54' E 011°18'1313.3
2015-Aug-31 16:33N 37°59' E 011°02'1413.6
2015-Aug-31 15:33N 37°59' E 010°45'1413.5
2015-Aug-31 14:32N 37°58' E 010°27'1312.9
2015-Aug-31 13:33N 37°57' E 010°11'1312.9
2015-Aug-31 12:33N 37°55' E 009°55'1313.0
2015-Aug-31 11:33N 37°55' E 009°38'15112.5
2015-Aug-30 23:31N 37°38' E 006°29'6712.7
2015-Aug-30 18:16N 37°31' E 005°05'2313.5
2015-Aug-30 16:33N 37°29' E 004°37'1513.4
2015-Aug-30 15:28N 37°27' E 004°18'19412.9
2015-Aug-30 00:30N 36°39' E 000°23'  

Dump ship's entire track history